Time;durP1;ratioP1;P1;durP2;ratioP2;P2;SDS_P1;SDS_P2;PMS_P1;PMS_P2;Temp;Humidity;BMP_temperature;BMP_pressure;BME280_temperature;BME280_humidity;BME280_pressure;Samples;Min_cycle;Max_cycle;Signal;HPM_P1;HPM_P2
2022/06/30 00:01:15;;;;;;;32.15;16.25;;;;;;;27.14;56.55;100352.00;4935103;29;20036;-62
2022/06/30 00:04:01;;;;;;;30.13;16.40;;;;;;;27.14;56.48;100355.59;4934742;29;20039;-62
2022/06/30 00:06:45;;;;;;;27.95;15.48;;;;;;;27.10;56.51;100348.53;4935406;29;20043;-62
2022/06/30 00:09:30;;;;;;;37.10;16.20;;;;;;;27.06;56.72;100351.41;4934404;29;20043;-62
2022/06/30 00:12:15;;;;;;;29.50;14.80;;;;;;;27.04;56.88;100348.25;4934802;29;20047;-62
2022/06/30 00:15:00;;;;;;;30.25;16.45;;;;;;;27.02;57.19;100353.47;4933981;29;20047;-62
2022/06/30 00:17:45;;;;;;;17.48;10.95;;;;;;;27.07;56.47;100347.38;4934962;29;20043;-63
2022/06/30 00:20:30;;;;;;;21.55;15.70;;;;;;;27.11;56.70;100348.09;4934420;29;20036;-63
2022/06/30 00:23:15;;;;;;;17.70;10.90;;;;;;;27.17;55.90;100354.69;4935227;29;20032;-62
2022/06/30 00:26:00;;;;;;;22.40;15.70;;;;;;;27.15;55.88;100350.78;4933642;29;20035;-62
2022/06/30 00:28:46;;;;;;;27.27;16.75;;;;;;;27.08;56.54;100348.16;4934428;29;20040;-62
2022/06/30 00:31:31;;;;;;;23.35;14.27;;;;;;;27.11;56.20;100350.09;4927846;29;20039;-62
2022/06/30 00:34:15;;;;;;;24.20;14.43;;;;;;;27.08;56.38;100353.75;4934698;29;20517;-62
2022/06/30 00:37:01;;;;;;;23.30;14.90;;;;;;;27.02;56.82;100349.94;4934448;29;20408;-62
2022/06/30 00:39:46;;;;;;;28.50;14.95;;;;;;;26.94;56.46;100349.31;4934964;29;20043;-62
2022/06/30 00:42:31;;;;;;;26.23;14.75;;;;;;;26.94;56.77;100352.09;4928098;29;20031;-62
2022/06/30 00:45:16;;;;;;;25.13;14.48;;;;;;;26.97;56.07;100345.63;4934643;29;20040;-62
2022/06/30 00:48:01;;;;;;;19.88;12.65;;;;;;;26.99;56.17;100348.00;4936294;29;20404;-62
2022/06/30 00:50:46;;;;;;;23.20;12.55;;;;;;;26.91;56.59;100358.56;4933881;29;20043;-63
2022/06/30 00:53:37;;;;;;;23.13;11.95;;;;;;;26.89;56.34;100363.78;4928089;29;20036;-62
2022/06/30 00:56:26;;;;;;;19.98;11.20;;;;;;;26.93;56.47;100363.69;4926436;29;20052;-61
2022/06/30 00:59:14;;;;;;;17.90;11.80;;;;;;;26.94;56.24;100357.69;4933682;29;20040;-62
2022/06/30 01:02:00;;;;;;;25.38;11.05;;;;;;;26.94;56.16;100351.31;4934417;29;20040;-62
2022/06/30 01:04:47;;;;;;;21.75;13.90;;;;;;;26.87;56.43;100355.06;4934002;29;20410;-62
2022/06/30 01:07:33;;;;;;;26.85;13.82;;;;;;;26.82;56.53;100359.13;4927678;29;20039;-62
2022/06/30 01:13:22;;;;;;;24.48;13.65;;;;;;;26.74;57.19;100356.94;4915425;29;20045;-62
2022/06/30 01:16:07;;;;;;;34.33;15.85;;;;;;;26.73;57.15;100360.94;4932959;29;20415;-63
2022/06/30 01:18:52;;;;;;;25.73;14.10;;;;;;;26.70;57.13;100356.25;4933315;29;20047;-62
2022/06/30 01:21:37;;;;;;;35.97;15.77;;;;;;;26.66;57.56;100361.13;4936469;29;20040;-62
2022/06/30 01:24:22;;;;;;;21.77;14.38;;;;;;;26.62;57.78;100360.41;4933940;29;20039;-62
2022/06/30 01:27:07;;;;;;;26.15;16.02;;;;;;;26.68;57.61;100365.03;4936829;29;20044;-62
2022/06/30 01:29:52;;;;;;;29.40;16.40;;;;;;;26.67;57.55;100365.47;4934119;29;20499;-62
2022/06/30 01:32:37;;;;;;;29.10;14.15;;;;;;;26.70;57.70;100365.41;4928201;29;20044;-62
2022/06/30 01:35:21;;;;;;;26.15;15.05;;;;;;;26.69;57.30;100365.81;4934166;29;20043;-62
2022/06/30 01:38:06;;;;;;;28.70;18.45;;;;;;;26.65;57.78;100362.34;4930685;29;20048;-62
2022/06/30 01:40:51;;;;;;;23.42;17.10;;;;;;;26.66;57.68;100361.13;4933975;29;20036;-62
2022/06/30 01:43:36;;;;;;;30.17;18.35;;;;;;;26.58;58.33;100360.50;4931282;29;20508;-62
2022/06/30 01:46:21;;;;;;;29.35;18.58;;;;;;;26.68;58.12;100376.19;4932808;29;20511;-62
2022/06/30 01:49:07;;;;;;;24.27;13.73;;;;;;;26.65;58.08;100365.13;4930946;29;20043;-62
2022/06/30 01:51:51;;;;;;;21.85;12.63;;;;;;;26.67;57.45;100362.66;4932733;29;20048;-63
2022/06/30 01:54:37;;;;;;;32.08;18.98;;;;;;;26.72;56.93;100362.16;4933619;29;20043;-62
2022/06/30 01:57:21;;;;;;;23.40;13.52;;;;;;;26.72;56.88;100362.94;4932468;29;20051;-62
2022/06/30 02:00:10;;;;;;;29.67;13.70;;;;;;;26.77;56.72;100359.63;4931310;29;20039;-62
2022/06/30 02:02:57;;;;;;;24.80;15.77;;;;;;;26.81;56.65;100362.38;4932417;29;20397;-62
2022/06/30 02:05:42;;;;;;;25.98;16.63;;;;;;;26.79;56.93;100359.22;4933354;29;20233;-62
2022/06/30 02:08:27;;;;;;;22.98;13.13;;;;;;;26.81;56.99;100365.16;4930492;29;20043;-62
2022/06/30 02:11:11;;;;;;;23.75;14.38;;;;;;;26.81;56.94;100357.56;4932971;29;20043;-62
2022/06/30 02:13:57;;;;;;;24.92;13.73;;;;;;;26.83;56.85;100357.13;4929968;29;20039;-62
2022/06/30 02:16:41;;;;;;;19.27;12.55;;;;;;;26.85;56.47;100349.09;4937748;29;20044;-62
2022/06/30 02:19:26;;;;;;;22.30;13.38;;;;;;;26.86;56.39;100356.25;4926135;29;20521;-62
2022/06/30 02:22:11;;;;;;;21.17;12.75;;;;;;;26.87;56.59;100362.66;4932372;29;20040;-62
2022/06/30 02:24:56;;;;;;;21.38;13.38;;;;;;;26.87;56.53;100357.09;4933054;29;20424;-61
2022/06/30 02:27:41;;;;;;;18.85;12.55;;;;;;;26.83;56.27;100363.50;4933391;29;20043;-60
2022/06/30 02:30:26;;;;;;;26.25;13.52;;;;;;;26.81;56.48;100363.16;4933047;29;20051;-61
2022/06/30 02:33:13;;;;;;;25.80;13.20;;;;;;;26.79;56.52;100357.22;4914213;29;20345;-63
2022/06/30 02:35:57;;;;;;;25.27;14.23;;;;;;;26.76;56.73;100360.09;4917162;29;20051;-61
2022/06/30 02:38:42;;;;;;;18.83;11.88;;;;;;;26.75;56.66;100358.50;4914091;29;20044;-60
2022/06/30 02:41:27;;;;;;;16.48;10.20;;;;;;;26.72;56.22;100359.38;4919296;29;20227;-63
2022/06/30 02:44:12;;;;;;;18.05;10.35;;;;;;;26.72;56.14;100353.78;4914426;29;20044;-63
2022/06/30 02:46:57;;;;;;;18.05;9.75;;;;;;;26.67;56.58;100355.09;4914305;29;20424;-63
2022/06/30 02:49:42;;;;;;;24.23;11.57;;;;;;;26.61;56.50;100348.47;4914052;29;20047;-62
2022/06/30 02:52:27;;;;;;;14.93;9.38;;;;;;;26.63;56.73;100345.25;4934797;29;20040;-63
2022/06/30 02:55:12;;;;;;;16.48;8.80;;;;;;;26.67;56.30;100348.72;4936120;29;20050;-63
2022/06/30 02:57:57;;;;;;;20.25;9.48;;;;;;;26.68;56.48;100341.94;4933178;29;20039;-62
2022/06/30 03:00:42;;;;;;;18.55;8.70;;;;;;;26.68;56.16;100341.94;4936112;29;20043;-62
2022/06/30 03:03:27;;;;;;;21.85;8.80;;;;;;;26.71;56.02;100357.81;4936005;29;20047;-62
2022/06/30 03:06:11;;;;;;;23.10;9.90;;;;;;;26.72;56.02;100351.00;4935981;29;20036;-62
2022/06/30 03:08:58;;;;;;;22.02;9.65;;;;;;;26.73;55.89;100356.16;4935756;29;20046;-62
2022/06/30 03:11:43;;;;;;;17.60;9.20;;;;;;;26.70;56.12;100351.44;4936104;29;20087;-60
2022/06/30 03:14:28;;;;;;;15.80;8.65;;;;;;;26.69;55.82;100354.66;4935839;29;20103;-62
2022/06/30 03:17:13;;;;;;;19.13;8.95;;;;;;;26.68;55.82;100358.66;4933886;29;20478;-62
2022/06/30 03:19:58;;;;;;;18.40;7.63;;;;;;;26.69;56.08;100354.66;4941140;29;20043;-61
2022/06/30 03:22:43;;;;;;;16.05;7.97;;;;;;;26.69;55.77;100354.66;4938404;29;20046;-61
2022/06/30 03:25:28;;;;;;;14.57;7.80;;;;;;;26.69;55.43;100355.44;4931885;28;20039;-62
2022/06/30 03:28:13;;;;;;;13.30;6.28;;;;;;;26.69;55.53;100354.66;4941473;29;20047;-62
2022/06/30 03:30:58;;;;;;;16.95;7.80;;;;;;;26.68;55.53;100353.88;4953215;29;20050;-61
2022/06/30 03:33:43;;;;;;;19.27;7.22;;;;;;;26.67;55.41;100340.34;4952257;29;20057;-61
2022/06/30 03:36:28;;;;;;;14.93;7.55;;;;;;;26.64;55.27;100352.41;4939098;29;20403;-60
2022/06/30 03:39:13;;;;;;;12.63;5.82;;;;;;;26.63;55.08;100353.59;4936036;29;20058;-63
2022/06/30 03:41:58;;;;;;;10.35;5.47;;;;;;;26.62;54.99;100349.25;4952031;29;20050;-61
2022/06/30 03:44:43;;;;;;;15.02;5.88;;;;;;;26.62;54.70;100352.03;4949548;29;20047;-61
2022/06/30 03:47:28;;;;;;;9.43;4.60;;;;;;;26.62;54.67;100363.19;4954594;29;20513;-61
2022/06/30 03:50:13;;;;;;;15.60;5.20;;;;;;;26.62;54.52;100357.59;4954141;29;20066;-60
2022/06/30 03:52:59;;;;;;;16.45;5.78;;;;;;;26.60;54.17;100363.63;4957653;28;20039;-62
2022/06/30 03:55:44;;;;;;;9.98;5.25;;;;;;;26.61;54.36;100361.63;4945454;29;20050;-62
2022/06/30 03:58:29;;;;;;;9.52;6.00;;;;;;;26.59;54.40;100364.84;4941387;29;20046;-61
2022/06/30 04:01:14;;;;;;;9.55;5.15;;;;;;;26.58;54.16;100359.69;4950631;28;20058;-61
2022/06/30 04:03:59;;;;;;;11.18;6.00;;;;;;;26.56;53.61;100362.94;4948880;29;20046;-61
2022/06/30 04:06:43;;;;;;;12.55;6.80;;;;;;;26.52;53.81;100361.41;4949844;28;20040;-62
2022/06/30 04:09:28;;;;;;;15.95;6.65;;;;;;;26.48;54.03;100361.50;4935606;29;20511;-63
2022/06/30 04:12:13;;;;;;;14.93;5.97;;;;;;;26.43;54.30;100364.81;4949955;29;20075;-63
2022/06/30 04:14:58;;;;;;;10.75;5.20;;;;;;;26.41;54.46;100363.69;4934187;29;20395;-62
2022/06/30 04:17:43;;;;;;;11.10;5.50;;;;;;;26.41;54.14;100367.25;4945507;28;20408;-60
2022/06/30 04:20:28;;;;;;;8.27;5.60;;;;;;;26.42;54.60;100368.03;4926816;29;20063;-63
2022/06/30 04:23:13;;;;;;;11.07;5.72;;;;;;;26.39;54.67;100358.53;4930944;28;20067;-62
2022/06/30 04:25:58;;;;;;;9.65;5.80;;;;;;;26.40;54.63;100365.69;4931821;29;20500;-62
2022/06/30 04:28:43;;;;;;;11.98;6.38;;;;;;;26.38;54.54;100354.16;4941692;29;20058;-62
2022/06/30 04:34:31;;;;;;;9.52;5.28;;;;;;;26.35;54.27;100360.63;4935301;28;20137;-62
2022/06/30 04:37:16;;;;;;;12.57;5.97;;;;;;;26.36;54.46;100343.44;4930356;29;20043;-63
2022/06/30 04:43:06;;;;;;;;;;;;;;;26.38;54.40;100346.59;4931570;29;20059;-63
2022/06/30 04:45:50;;;;;;;8.50;5.13;;;;;;;26.37;54.35;100349.81;4933657;29;19915;-62
2022/06/30 04:48:35;;;;;;;17.88;5.63;;;;;;;26.37;54.76;100342.22;4927947;29;20047;-62
2022/06/30 04:51:21;;;;;;;20.48;7.07;;;;;;;26.36;54.99;100349.00;4933898;29;20047;-59
2022/06/30 04:54:06;;;;;;;19.60;6.10;;;;;;;26.03;56.51;100361.25;4933901;29;20491;-60
2022/06/30 04:56:51;;;;;;;22.10;7.30;;;;;;;25.97;56.77;100358.19;4933585;29;20415;-61
2022/06/30 04:59:36;;;;;;;25.10;8.30;;;;;;;26.12;56.72;100355.88;4928514;29;20399;-62
2022/06/30 05:02:21;;;;;;;16.25;7.07;;;;;;;26.11;56.46;100362.66;4932580;29;20050;-62
2022/06/30 05:05:06;;;;;;;24.77;6.40;;;;;;;26.13;56.53;100357.47;4941932;29;20044;-62
2022/06/30 05:07:51;;;;;;;15.70;7.13;;;;;;;26.14;56.41;100352.66;4933328;29;20043;-62
2022/06/30 05:10:36;;;;;;;15.43;6.80;;;;;;;26.13;56.00;100363.03;4928535;29;20050;-62
2022/06/30 05:13:21;;;;;;;21.25;5.55;;;;;;;26.17;55.97;100360.16;4960769;23;20292;-82
2022/06/30 05:16:06;;;;;;;12.38;5.45;;;;;;;26.19;56.39;100360.53;4960654;28;20042;-81
2022/06/30 05:18:51;;;;;;;17.38;5.90;;;;;;;26.22;56.01;100360.47;4953667;28;20051;-81
2022/06/30 05:21:36;;;;;;;15.80;6.57;;;;;;;26.24;56.39;100360.84;4974517;28;20042;-82
2022/06/30 05:27:24;;;;;;;11.30;6.25;;;;;;;26.27;55.92;100368.34;4956595;29;20050;-81
2022/06/30 05:30:10;;;;;;;20.38;6.90;;;;;;;26.29;55.53;100365.13;4957451;28;20050;-80
2022/06/30 05:32:55;;;;;;;9.82;5.13;;;;;;;26.29;55.82;100371.50;4963056;28;20042;-82
2022/06/30 05:35:42;;;;;;;9.18;5.25;;;;;;;26.31;55.97;100363.47;4957983;28;20059;-81
2022/06/30 05:38:27;;;;;;;16.05;5.63;;;;;;;26.35;56.05;100382.94;4947219;29;20050;-81
2022/06/30 05:41:12;;;;;;;19.98;6.97;;;;;;;26.35;55.96;100380.13;4965399;28;20050;-82
2022/06/30 05:43:57;;;;;;;9.40;4.80;;;;;;;26.39;55.96;100383.63;4959334;29;20401;-82
2022/06/30 05:46:43;;;;;;;9.93;5.43;;;;;;;26.42;55.78;100379.97;4959200;28;20054;-80
2022/06/30 05:49:28;;;;;;;14.77;5.85;;;;;;;26.45;55.91;100381.13;4949845;29;20050;-81
2022/06/30 05:52:13;;;;;;;24.08;8.23;;;;;;;26.49;55.94;100381.81;4967764;29;20058;-82
2022/06/30 05:54:58;;;;;;;13.15;6.10;;;;;;;26.49;55.75;100377.03;4957852;28;20119;-81
2022/06/30 05:57:49;;;;;;;10.07;5.85;;;;;;;26.55;55.55;100382.88;4955319;29;20062;-81
2022/06/30 06:00:34;;;;;;;13.68;5.10;;;;;;;26.56;55.89;100381.69;4956759;29;20042;-81
2022/06/30 06:03:19;;;;;;;16.33;5.63;;;;;;;26.58;55.97;100384.81;4968951;28;20043;-80
2022/06/30 06:06:04;;;;;;;13.32;5.82;;;;;;;26.57;55.65;100383.22;4955698;29;20059;-81
2022/06/30 06:08:49;;;;;;;10.63;5.65;;;;;;;26.60;55.80;100383.16;4966624;29;20054;-81
2022/06/30 06:11:34;;;;;;;10.05;5.97;;;;;;;26.65;55.77;100395.81;4957478;29;20047;-81
2022/06/30 06:14:19;;;;;;;16.92;6.55;;;;;;;26.66;55.78;100391.81;4954563;29;20512;-81
2022/06/30 06:17:04;;;;;;;10.70;5.18;;;;;;;26.69;55.57;100400.09;4959758;29;20063;-81
2022/06/30 06:19:49;;;;;;;11.43;6.28;;;;;;;26.73;55.91;100397.22;4964932;28;20050;-81
2022/06/30 06:22:34;;;;;;;12.45;5.63;;;;;;;26.74;55.22;100396.00;4953087;29;20048;-81
2022/06/30 06:25:19;;;;;;;13.00;5.75;;;;;;;26.77;55.17;100400.69;4952069;28;20059;-81
2022/06/30 06:31:08;;;;;;;16.40;4.97;;;;;;;26.85;54.70;100409.72;4973747;28;20048;-81
2022/06/30 06:33:53;;;;;;;10.55;5.40;;;;;;;26.87;55.02;100405.28;4963577;29;20050;-81
2022/06/30 06:36:38;;;;;;;9.60;5.65;;;;;;;26.91;54.76;100414.38;4965871;29;20047;-81
2022/06/30 06:39:23;;;;;;;16.17;5.78;;;;;;;26.93;54.41;100408.34;4972219;28;20046;-81
2022/06/30 06:42:08;;;;;;;15.55;6.18;;;;;;;26.97;55.13;100414.66;4968463;28;20046;-81
2022/06/30 06:44:57;;;;;;;11.40;6.25;;;;;;;27.01;54.70;100410.56;4966300;28;20054;-81
2022/06/30 06:47:42;;;;;;;13.95;5.78;;;;;;;27.06;54.34;100412.81;4959685;28;20050;-81
2022/06/30 06:50:26;;;;;;;12.90;6.63;;;;;;;27.08;54.51;100418.75;4963372;28;20063;-84
2022/06/30 06:53:11;;;;;;;14.77;6.50;;;;;;;27.11;53.90;100415.09;4967640;28;20054;-81
2022/06/30 06:55:55;;;;;;;14.43;6.53;;;;;;;27.15;54.31;100415.78;4964370;28;20054;-82
2022/06/30 06:58:40;;;;;;;10.70;7.07;;;;;;;27.19;54.22;100416.50;4970453;29;20045;-82
2022/06/30 07:01:25;;;;;;;17.73;8.85;;;;;;;27.26;54.86;100420.34;4963902;29;20419;-82
2022/06/30 07:04:10;;;;;;;20.15;8.48;;;;;;;27.27;54.84;100422.69;4966515;28;20038;-82
2022/06/30 07:06:55;;;;;;;15.68;7.60;;;;;;;27.32;55.35;100424.19;4960613;28;20046;-83
2022/06/30 07:09:40;;;;;;;14.18;8.65;;;;;;;27.39;55.99;100435.16;4961407;28;20055;-81
2022/06/30 07:12:25;;;;;;;20.63;9.95;;;;;;;27.48;55.44;100435.34;4960305;28;20055;-82
2022/06/30 07:15:10;;;;;;;22.40;8.48;;;;;;;27.49;55.07;100425.72;4965410;28;20066;-82
2022/06/30 07:17:55;;;;;;;15.52;6.85;;;;;;;27.50;54.37;100427.34;4973462;29;20042;-82
2022/06/30 07:20:40;;;;;;;11.98;6.72;;;;;;;27.52;54.16;100436.88;4969770;29;20046;-80
2022/06/30 07:23:25;;;;;;;17.85;7.43;;;;;;;27.54;54.38;100442.00;4965348;28;20035;-81
2022/06/30 07:26:11;;;;;;;12.20;7.22;;;;;;;27.59;54.29;100444.25;4962015;28;20063;-82
2022/06/30 07:28:56;;;;;;;14.82;5.30;;;;;;;27.65;54.23;100431.34;4974819;28;20047;-81
2022/06/30 07:31:41;;;;;;;15.57;6.15;;;;;;;27.72;54.12;100441.56;4967847;28;20063;-81
2022/06/30 07:34:26;;;;;;;14.70;6.60;;;;;;;27.78;54.12;100443.38;4968238;29;20050;-82
2022/06/30 07:37:11;;;;;;;12.73;5.95;;;;;;;27.81;53.96;100428.50;4966174;28;20062;-82
2022/06/30 07:39:56;;;;;;;16.02;6.20;;;;;;;27.86;53.45;100430.00;4957812;28;20043;-81
2022/06/30 07:42:41;;;;;;;9.35;4.30;;;;;;;27.87;53.08;100429.56;4969935;28;20046;-80
2022/06/30 07:45:27;;;;;;;16.83;6.60;;;;;;;27.97;53.57;100431.28;4952206;29;20054;-81
2022/06/30 07:48:11;;;;;;;16.92;7.35;;;;;;;28.06;53.74;100428.63;4967095;28;20047;-81
2022/06/30 07:50:56;;;;;;;25.45;6.75;;;;;;;28.13;53.21;100426.88;4973157;28;20050;-81
2022/06/30 07:53:42;;;;;;;15.85;6.80;;;;;;;28.19;53.24;100425.13;4953567;29;20042;-81
2022/06/30 07:56:27;;;;;;;12.25;6.13;;;;;;;28.26;53.03;100424.91;4969109;28;20046;-81
2022/06/30 07:59:13;;;;;;;10.18;6.03;;;;;;;28.30;52.86;100414.41;4969008;28;20054;-80
2022/06/30 08:01:58;;;;;;;20.98;7.07;;;;;;;28.34;52.16;100421.44;4962769;28;20044;-81
2022/06/30 08:04:43;;;;;;;19.90;8.55;;;;;;;28.41;52.60;100432.44;4964907;29;20039;-81
2022/06/30 08:07:28;;;;;;;16.20;5.35;;;;;;;28.42;52.15;100434.03;4954754;28;20043;-80
2022/06/30 08:10:13;;;;;;;17.08;8.13;;;;;;;28.50;52.59;100429.00;4959483;28;20054;-80
2022/06/30 08:12:58;;;;;;;17.30;6.53;;;;;;;28.51;52.36;100424.97;4951391;29;20039;-81
2022/06/30 08:15:43;;;;;;;15.10;6.53;;;;;;;28.53;51.73;100424.53;4942788;29;20042;-81
2022/06/30 08:18:28;;;;;;;13.48;6.30;;;;;;;28.58;52.34;100427.56;4958912;28;20066;-81
2022/06/30 08:21:12;;;;;;;19.77;7.22;;;;;;;28.64;52.44;100428.59;4954179;28;20070;-81
2022/06/30 08:23:57;;;;;;;11.95;5.28;;;;;;;28.66;52.15;100426.09;4958200;28;20047;-81
2022/06/30 08:26:42;;;;;;;14.00;5.32;;;;;;;28.70;52.26;100421.19;4958853;29;20051;-81
2022/06/30 08:29:27;;;;;;;13.48;6.03;;;;;;;28.69;51.47;100419.63;4958438;28;20047;-81
2022/06/30 08:32:12;;;;;;;16.38;8.60;;;;;;;28.78;51.61;100416.19;4962659;28;20051;-81
2022/06/30 08:34:56;;;;;;;12.93;6.15;;;;;;;28.80;51.28;100428.50;4959935;28;20038;-82
2022/06/30 08:37:41;;;;;;;12.70;5.55;;;;;;;28.86;51.14;100425.94;4957761;28;20044;-82
2022/06/30 08:43:34;;;;;;;15.07;7.18;;;;;;;28.90;50.45;100421.78;4953986;28;20038;-82
2022/06/30 08:46:22;;;;;;;9.43;3.85;;;;;;;28.89;50.09;100417.44;4950908;28;20492;-82
2022/06/30 08:49:07;;;;;;;10.27;4.25;;;;;;;28.91;50.41;100414.97;4962025;28;20058;-82
2022/06/30 08:51:55;;;;;;;10.25;5.35;;;;;;;28.96;49.83;100419.22;4964654;28;20046;-82
2022/06/30 08:54:40;;;;;;;14.57;5.20;;;;;;;29.01;49.89;100415.84;4955930;29;20040;-83
2022/06/30 08:57:27;;;;;;;21.23;8.23;;;;;;;29.12;49.80;100427.50;4951598;29;20050;-83
2022/06/30 09:00:14;;;;;;;8.60;4.20;;;;;;;29.12;49.34;100418.31;4950970;29;20054;-81
2022/06/30 09:03:00;;;;;;;9.57;3.72;;;;;;;29.12;49.16;100423.91;4948255;28;20047;-79
2022/06/30 09:05:46;;;;;;;14.23;5.70;;;;;;;29.15;49.48;100421.03;4950866;28;20519;-79
2022/06/30 09:08:31;;;;;;;8.20;3.45;;;;;;;29.16;49.23;100421.78;4950771;29;20392;-79
2022/06/30 09:11:16;;;;;;;12.85;6.03;;;;;;;29.19;48.75;100429.28;4943704;28;20051;-79
2022/06/30 09:14:03;;;;;;;13.95;5.57;;;;;;;29.21;48.66;100422.00;4958919;28;20043;-79
2022/06/30 09:16:52;;;;;;;11.65;4.40;;;;;;;29.31;48.29;100420.09;4957838;29;20413;-78
2022/06/30 09:19:51;;;;;;;12.13;4.82;;;;;;;29.46;48.47;100426.03;4939746;29;20055;-79
2022/06/30 09:22:37;;;;;;;53.50;9.52;;;;;;;29.64;47.98;100424.19;4948597;29;20042;-78
2022/06/30 09:25:30;;;;;;;30.13;9.00;;;;;;;29.72;48.02;100421.91;4958038;28;20050;-79
2022/06/30 09:28:16;;;;;;;15.07;7.32;;;;;;;29.84;47.58;100417.50;4954019;29;20048;-78
2022/06/30 09:31:01;;;;;;;18.00;7.60;;;;;;;29.98;47.50;100405.81;4963861;28;20043;-78
2022/06/30 09:33:47;;;;;;;28.15;7.65;;;;;;;30.08;47.54;100411.03;4957124;29;20039;-79
2022/06/30 09:36:32;;;;;;;12.27;4.90;;;;;;;30.07;47.45;100414.31;4952238;28;20040;-79
2022/06/30 09:39:19;;;;;;;16.20;5.65;;;;;;;30.09;47.16;100411.81;4956576;28;20055;-79
2022/06/30 09:42:04;;;;;;;24.48;7.82;;;;;;;30.18;47.28;100409.84;4957699;29;20070;-80
2022/06/30 09:44:49;;;;;;;16.80;7.53;;;;;;;30.30;46.18;100408.22;4957640;28;20056;-80
2022/06/30 09:47:35;;;;;;;8.95;4.40;;;;;;;30.33;46.04;100404.50;4946825;29;20133;-80
2022/06/30 09:50:22;;;;;;;10.80;5.95;;;;;;;30.34;46.07;100410.88;4955983;29;20046;-80
2022/06/30 09:53:12;;;;;;;5.68;3.47;;;;;;;30.29;45.79;100415.06;4957586;28;20050;-79
2022/06/30 09:56:14;;;;;;;9.48;4.30;;;;;;;30.29;45.98;100419.91;4954157;29;20410;-79
2022/06/30 09:58:59;;;;;;;15.00;4.85;;;;;;;30.43;45.88;100434.19;4957711;28;20058;-78
2022/06/30 10:01:54;;;;;;;11.95;4.82;;;;;;;30.54;45.36;100423.38;4968657;29;20050;-79
2022/06/30 10:04:55;;;;;;;9.68;4.80;;;;;;;30.56;45.24;100420.09;4956276;28;20043;-79
2022/06/30 10:07:40;;;;;;;6.78;3.08;;;;;;;30.56;45.00;100412.47;4953649;29;20055;-80
2022/06/30 10:10:25;;;;;;;8.25;4.43;;;;;;;30.51;45.26;100415.88;4949963;29;20054;-80
2022/06/30 10:13:16;;;;;;;8.52;2.72;;;;;;;30.61;45.09;100407.50;4956162;28;20062;-80
2022/06/30 10:16:04;;;;;;;10.88;4.25;;;;;;;30.73;44.62;100417.88;4971220;29;20047;-80
2022/06/30 10:18:49;;;;;;;11.35;5.55;;;;;;;30.83;44.53;100428.66;4964261;28;20055;-80
2022/06/30 10:21:36;;;;;;;16.85;6.68;;;;;;;30.92;44.54;100422.31;4962915;29;20035;-79
2022/06/30 10:24:21;;;;;;;11.95;5.15;;;;;;;31.00;44.47;100423.56;4965454;28;20043;-80
2022/06/30 10:27:13;;;;;;;14.63;5.93;;;;;;;31.03;44.23;100422.69;5486529;23;20051;-77
2022/06/30 10:30:00;;;;;;;17.05;6.88;;;;;;;31.34;43.81;100420.59;4935841;29;20058;-77
2022/06/30 10:32:53;;;;;;;9.18;5.20;;;;;;;31.41;43.20;100416.69;4934274;29;20039;-77
2022/06/30 10:35:55;;;;;;;9.57;3.78;;;;;;;31.57;41.82;100424.09;4940763;28;20055;-77
2022/06/30 10:39:04;;;;;;;12.25;3.88;;;;;;;31.62;41.51;100423.47;4917368;29;20043;-77
2022/06/30 10:41:49;;;;;;;15.45;4.07;;;;;;;31.54;41.79;100420.19;4924975;29;20059;-78
2022/06/30 10:44:33;;;;;;;11.88;4.30;;;;;;;31.60;40.95;100423.16;4918911;29;20051;-79
2022/06/30 10:47:18;;;;;;;16.38;3.33;;;;;;;31.64;41.50;100410.53;4919727;29;20040;-79
2022/06/30 10:50:03;;;;;;;10.73;2.90;;;;;;;31.68;41.08;100413.19;4917654;29;20044;-77
2022/06/30 10:52:48;;;;;;;13.43;4.43;;;;;;;31.71;41.65;100409.41;4921688;29;20044;-77
2022/06/30 10:55:54;;;;;;;18.00;5.38;;;;;;;31.82;41.30;100409.75;4914372;29;20052;-77
2022/06/30 10:59:05;;;;;;;16.60;5.80;;;;;;;31.84;41.77;100413.66;4926008;29;20043;-77
2022/06/30 11:02:08;;;;;;;17.52;5.45;;;;;;;31.92;41.09;100411.31;4923732;29;20044;-76
2022/06/30 11:05:26;;;;;;;13.82;4.43;;;;;;;31.91;40.46;100412.56;4920067;29;20040;-77
2022/06/30 11:08:47;;;;;;;12.93;4.43;;;;;;;31.92;40.88;100413.34;4918178;29;20048;-77
2022/06/30 11:11:31;;;;;;;12.60;3.78;;;;;;;31.96;40.95;100409.09;4922668;29;20047;-77
2022/06/30 11:14:17;;;;;;;11.43;3.60;;;;;;;31.94;41.47;100405.22;4916147;29;20040;-77
2022/06/30 11:17:13;;;;;;;21.95;4.07;;;;;;;32.08;39.63;100401.75;4916591;29;20424;-76
2022/06/30 11:20:04;;;;;;;11.57;3.75;;;;;;;31.95;40.79;100401.91;4919497;29;20043;-77
2022/06/30 11:22:54;;;;;;;19.23;4.15;;;;;;;31.83;40.94;100402.88;4920204;29;20071;-77
2022/06/30 11:28:44;;;;;;;17.02;5.65;;;;;;;32.00;40.78;100398.47;4925751;29;20047;-77
2022/06/30 11:31:33;;;;;;;18.45;3.55;;;;;;;32.03;41.53;100408.81;4925141;29;20075;-76
2022/06/30 11:34:20;;;;;;;8.50;3.55;;;;;;;32.09;40.52;100406.94;4920193;29;20036;-77
2022/06/30 11:37:05;;;;;;;25.17;5.03;;;;;;;32.10;40.39;100394.41;4925606;29;20055;-77
2022/06/30 11:40:07;;;;;;;12.15;3.30;;;;;;;32.13;40.37;100399.13;4918162;29;20047;-76
2022/06/30 11:42:53;;;;;;;8.40;3.67;;;;;;;32.24;40.75;100404.28;4924932;29;20043;-76
2022/06/30 11:45:38;;;;;;;13.38;3.60;;;;;;;32.24;40.07;100395.84;4915151;29;20043;-76
2022/06/30 11:48:22;;;;;;;10.63;4.25;;;;;;;32.20;40.15;100393.16;4917387;29;20420;-77
2022/06/30 11:51:11;;;;;;;10.50;4.10;;;;;;;32.03;40.67;100388.31;4920183;29;20413;-76
2022/06/30 11:53:56;;;;;;;10.90;3.63;;;;;;;32.02;40.59;100384.72;4913221;29;20067;-76
2022/06/30 11:56:53;;;;;;;7.60;3.00;;;;;;;32.16;39.61;100380.50;4910513;29;20059;-76
2022/06/30 11:59:46;;;;;;;7.68;3.60;;;;;;;32.14;39.49;100391.47;4918317;29;20520;-76
2022/06/30 12:02:32;;;;;;;14.48;3.97;;;;;;;32.19;39.64;100386.00;4927427;29;20059;-76
2022/06/30 12:05:20;;;;;;;6.38;2.92;;;;;;;32.19;40.30;100380.38;4916090;29;20040;-76
2022/06/30 12:08:06;;;;;;;13.32;3.67;;;;;;;32.24;39.18;100382.53;4917021;29;20071;-76
2022/06/30 12:10:51;;;;;;;12.57;3.42;;;;;;;32.15;39.61;100371.28;4913584;29;20532;-76
2022/06/30 12:13:36;;;;;;;12.80;3.83;;;;;;;32.15;39.79;100365.66;4915874;29;20055;-76
2022/06/30 12:16:21;;;;;;;12.13;4.00;;;;;;;32.14;39.98;100364.13;4923122;29;20527;-76
2022/06/30 12:19:06;;;;;;;11.50;3.42;;;;;;;32.20;39.85;100367.84;4933833;29;20043;-76
2022/06/30 12:21:50;;;;;;;11.02;3.65;;;;;;;32.02;40.22;100359.41;4916299;29;20040;-76
2022/06/30 12:24:38;;;;;;;7.70;2.63;;;;;;;31.77;40.94;100356.94;4911608;29;20044;-77
2022/06/30 12:27:36;;;;;;;17.50;4.07;;;;;;;31.72;41.03;100355.53;4910897;29;20423;-76
2022/06/30 12:30:29;;;;;;;10.63;3.33;;;;;;;31.74;40.82;100355.06;4923980;29;20047;-76
2022/06/30 12:33:14;;;;;;;6.57;3.05;;;;;;;31.68;41.05;100354.13;4915680;29;20412;-77
2022/06/30 12:36:02;;;;;;;6.55;2.92;;;;;;;31.76;41.22;100358.19;4930622;28;20051;-77
2022/06/30 12:38:47;;;;;;;7.45;3.03;;;;;;;31.77;40.91;100349.28;4913316;29;20043;-76
2022/06/30 12:41:32;;;;;;;10.65;3.05;;;;;;;31.86;40.73;100359.72;4913393;29;20051;-76
2022/06/30 12:44:30;;;;;;;6.88;2.88;;;;;;;32.26;39.98;100357.50;4916298;29;20583;-76
2022/06/30 12:47:14;;;;;;;10.35;3.55;;;;;;;32.40;39.09;100355.28;4917004;29;20506;-76
2022/06/30 12:50:22;;;;;;;11.07;3.05;;;;;;;32.38;38.93;100366.25;4921275;29;20044;-77
2022/06/30 12:53:24;;;;;;;13.98;4.00;;;;;;;32.57;38.16;100356.47;4920022;29;20047;-76
2022/06/30 12:56:09;;;;;;;13.73;3.28;;;;;;;32.49;38.25;100367.31;4926632;29;20059;-76
2022/06/30 12:59:10;;;;;;;18.95;3.65;;;;;;;32.58;37.76;100358.81;4916385;29;20047;-75
2022/06/30 13:01:57;;;;;;;9.35;2.42;;;;;;;32.75;36.44;100361.28;4929663;29;20051;-76
2022/06/30 13:04:52;;;;;;;8.75;2.13;;;;;;;32.79;36.27;100361.88;4917343;29;20421;-76
2022/06/30 13:07:37;;;;;;;7.03;2.53;;;;;;;32.68;36.62;100363.19;4921514;29;20058;-76